createdAt,value
2019-06-20T00:01:37.038Z,79.37
2019-06-20T00:04:05.406Z,79.52
2019-06-20T00:06:33.835Z,79.71
2019-06-20T00:09:02.690Z,79.88
2019-06-20T00:11:31.139Z,79.92
2019-06-20T00:13:59.541Z,79.94
2019-06-20T00:16:28.011Z,79.96
2019-06-20T00:18:56.421Z,80.01
2019-06-20T00:21:24.810Z,79.98
2019-06-20T00:23:53.227Z,79.87
2019-06-20T00:26:21.950Z,79.74
2019-06-20T00:28:50.351Z,79.66
2019-06-20T00:31:18.763Z,79.80
2019-06-20T00:33:47.160Z,79.85
2019-06-20T00:36:15.570Z,79.68
2019-06-20T00:38:43.957Z,79.49
2019-06-20T00:41:12.359Z,79.44
2019-06-20T00:43:41.040Z,79.44
2019-06-20T00:46:09.499Z,79.33
2019-06-20T00:48:38.006Z,78.96
2019-06-20T00:51:06.373Z,78.41
2019-06-20T00:53:34.766Z,77.36
2019-06-20T00:56:04.953Z,77.23
2019-06-20T00:58:33.451Z,76.44
2019-06-20T01:01:01.886Z,75.82
2019-06-20T01:03:30.280Z,75.71
2019-06-20T01:05:58.680Z,75.51
2019-06-20T01:08:27.086Z,74.76
2019-06-20T01:10:55.506Z,73.55
2019-06-20T01:13:32.955Z,74.29
2019-06-20T01:15:54.057Z,73.77
2019-06-20T01:18:22.532Z,73.60
2019-06-20T01:20:51.285Z,73.89
2019-06-20T01:23:19.694Z,74.38
2019-06-20T01:25:48.331Z,73.81
2019-06-20T01:28:26.403Z,73.60
2019-06-20T01:30:50.593Z,73.62
2019-06-20T01:33:19.068Z,73.26
2019-06-20T01:35:48.191Z,72.84
2019-06-20T01:38:16.600Z,73.18
2019-06-20T01:40:44.993Z,72.84
2019-06-20T01:43:13.565Z,72.85
2019-06-20T01:45:42.013Z,72.54
2019-06-20T01:48:10.397Z,72.79
2019-06-20T01:50:38.803Z,72.14
2019-06-20T01:53:07.197Z,72.28
2019-06-20T01:55:35.596Z,72.08
2019-06-20T01:58:03.989Z,71.86
2019-06-20T02:00:40.940Z,72.16
2019-06-20T02:03:09.347Z,71.76
2019-06-20T02:05:37.748Z,71.87
2019-06-20T02:08:06.204Z,71.89
2019-06-20T02:10:34.927Z,71.79
2019-06-20T02:13:03.324Z,71.60
2019-06-20T02:15:31.735Z,72.09
2019-06-20T02:18:00.351Z,71.86
2019-06-20T02:20:51.625Z,71.77
2019-06-20T02:23:20.514Z,71.78
2019-06-20T02:25:49.216Z,71.95
2019-06-20T02:28:17.662Z,72.02
2019-06-20T02:30:46.228Z,71.94
2019-06-20T02:33:14.904Z,72.23
2019-06-20T02:35:43.315Z,72.50
2019-06-20T02:38:11.741Z,72.53
2019-06-20T02:40:40.314Z,72.76
2019-06-20T02:43:09.099Z,72.59
2019-06-20T02:45:37.946Z,72.89
2019-06-20T02:48:06.670Z,72.82
2019-06-20T02:50:35.221Z,72.56
2019-06-20T02:53:04.964Z,72.82
2019-06-20T02:55:33.789Z,73.14
2019-06-20T02:58:02.273Z,73.03
2019-06-20T03:00:58.763Z,73.25
2019-06-20T03:03:28.400Z,73.94
2019-06-20T03:05:57.780Z,73.60
2019-06-20T03:08:27.021Z,73.82
2019-06-20T03:10:55.794Z,73.86
2019-06-20T03:13:24.324Z,74.31
2019-06-20T03:15:52.760Z,74.43
2019-06-20T03:18:21.246Z,74.40
2019-06-20T03:20:49.665Z,74.12
2019-06-20T03:23:18.413Z,74.36
2019-06-20T03:25:46.800Z,73.98
2019-06-20T03:28:15.221Z,74.47
2019-06-20T03:30:43.680Z,74.56
2019-06-20T03:33:12.189Z,74.41
2019-06-20T03:35:40.802Z,74.43
2019-06-20T03:38:09.190Z,74.71
2019-06-20T03:40:37.595Z,74.46
2019-06-20T03:43:06.063Z,74.11
2019-06-20T03:45:35.717Z,74.47
2019-06-20T03:48:04.693Z,74.31
2019-06-20T03:50:33.148Z,74.24
2019-06-20T03:53:01.873Z,74.93
2019-06-20T03:55:33.920Z,75.12
2019-06-20T03:58:02.493Z,74.74
2019-06-20T04:00:33.290Z,75.07
2019-06-20T04:03:01.987Z,74.77
2019-06-20T04:05:30.394Z,75.06
2019-06-20T04:07:59.060Z,74.94
2019-06-20T04:10:27.539Z,75.07
2019-06-20T04:12:56.168Z,74.88
2019-06-20T04:15:24.693Z,74.99
2019-06-20T04:17:53.092Z,75.10
2019-06-20T04:20:21.562Z,75.18
2019-06-20T04:22:49.945Z,74.77
2019-06-20T04:25:18.333Z,74.83
2019-06-20T04:27:46.735Z,74.91
2019-06-20T04:30:15.299Z,74.74
2019-06-20T04:32:43.984Z,74.81
2019-06-20T04:35:12.510Z,74.65
2019-06-20T04:37:40.918Z,74.62
2019-06-20T04:40:09.694Z,74.74
2019-06-20T04:42:38.075Z,74.93
2019-06-20T04:45:09.059Z,74.99
2019-06-20T04:47:37.491Z,75.22
2019-06-20T04:50:06.633Z,74.76
2019-06-20T04:52:35.031Z,74.90
2019-06-20T04:55:04.003Z,74.73
2019-06-20T04:57:32.489Z,74.75
2019-06-20T05:00:03.264Z,74.86
2019-06-20T05:02:34.234Z,74.36
2019-06-20T05:05:04.628Z,74.60
2019-06-20T05:07:33.058Z,74.81
2019-06-20T05:10:01.511Z,74.77
2019-06-20T05:12:29.896Z,74.39
2019-06-20T05:14:58.292Z,73.86
2019-06-20T05:17:26.706Z,73.81
2019-06-20T05:19:55.187Z,73.89
2019-06-20T05:22:23.896Z,73.41
2019-06-20T05:24:52.294Z,72.97
2019-06-20T05:27:21.668Z,73.03
2019-06-20T05:29:50.069Z,72.89
2019-06-20T05:32:18.467Z,73.34
2019-06-20T05:34:46.879Z,73.48
2019-06-20T05:37:15.270Z,73.48
2019-06-20T05:39:43.702Z,73.66
2019-06-20T05:42:12.099Z,73.25
2019-06-20T05:44:40.497Z,73.11
2019-06-20T05:47:13.596Z,73.37
2019-06-20T05:49:39.425Z,73.50
2019-06-20T05:52:07.818Z,73.47
2019-06-20T05:54:39.867Z,73.62
2019-06-20T05:57:10.849Z,73.38
2019-06-20T05:59:39.231Z,73.06
2019-06-20T06:02:07.994Z,73.08
2019-06-20T06:04:36.392Z,73.34
2019-06-20T06:07:05.180Z,72.44
2019-06-20T06:09:33.665Z,72.44
2019-06-20T06:12:02.077Z,72.30
2019-06-20T06:14:31.614Z,71.92
2019-06-20T06:17:00.362Z,71.70
2019-06-20T06:19:28.828Z,71.97
2019-06-20T06:21:57.323Z,71.63
2019-06-20T06:24:25.683Z,71.49
2019-06-20T06:26:54.085Z,71.08
2019-06-20T06:29:22.551Z,71.05
2019-06-20T06:31:50.997Z,71.10
2019-06-20T06:34:21.965Z,71.06
2019-06-20T06:36:49.680Z,70.72
2019-06-20T06:39:18.185Z,70.35
2019-06-20T06:41:46.587Z,69.13
2019-06-20T06:44:14.986Z,68.37
2019-06-20T06:46:52.088Z,68.04
2019-06-20T06:49:17.102Z,68.10
2019-06-20T06:51:45.491Z,66.96
2019-06-20T06:54:13.880Z,67.54
2019-06-20T06:56:42.317Z,66.91
2019-06-20T06:59:15.504Z,66.32
2019-06-20T07:01:43.958Z,65.94
2019-06-20T07:04:12.378Z,65.77
2019-06-20T07:06:40.842Z,64.57
2019-06-20T07:09:09.673Z,64.64
2019-06-20T07:11:38.223Z,64.34
2019-06-20T07:14:06.784Z,64.05
2019-06-20T07:16:35.241Z,64.08
2019-06-20T07:19:03.715Z,63.24
2019-06-20T07:21:32.148Z,63.55
2019-06-20T07:24:01.025Z,61.49
2019-06-20T07:26:29.501Z,62.82
2019-06-20T07:28:57.922Z,61.68
2019-06-20T07:31:26.338Z,61.98
2019-06-20T07:33:54.726Z,60.25
2019-06-20T07:36:23.263Z,60.63
2019-06-20T07:38:51.809Z,60.54
2019-06-20T07:41:20.213Z,60.42
2019-06-20T07:43:48.914Z,60.83
2019-06-20T07:46:17.597Z,62.08
2019-06-20T07:48:46.011Z,61.13
2019-06-20T07:51:14.405Z,60.80
2019-06-20T07:53:42.819Z,60.95
2019-06-20T07:56:11.279Z,61.61
2019-06-20T07:58:39.757Z,60.88
2019-06-20T08:01:08.216Z,60.83
2019-06-20T08:03:36.619Z,60.11
2019-06-20T08:06:05.483Z,60.06
2019-06-20T08:08:33.900Z,59.94
2019-06-20T08:11:02.380Z,60.26
2019-06-20T08:13:30.789Z,59.89
2019-06-20T08:15:59.223Z,60.30
2019-06-20T08:18:27.614Z,58.91
2019-06-20T08:20:56.115Z,58.33
2019-06-20T08:23:24.505Z,59.27
2019-06-20T08:25:52.905Z,59.42
2019-06-20T08:28:21.314Z,58.11
2019-06-20T08:30:49.701Z,57.64
2019-06-20T08:33:18.152Z,57.15
2019-06-20T08:35:46.552Z,56.64
2019-06-20T08:38:14.962Z,54.47
2019-06-20T08:40:43.355Z,54.13
2019-06-20T08:43:11.807Z,52.80
2019-06-20T08:45:42.191Z,52.66
2019-06-20T08:48:10.740Z,52.11
2019-06-20T08:50:40.351Z,52.96
2019-06-20T08:53:08.966Z,52.60
2019-06-20T08:55:38.189Z,51.13
2019-06-20T08:58:06.740Z,53.84
2019-06-20T09:00:37.363Z,53.12
2019-06-20T09:03:06.657Z,52.82
2019-06-20T09:05:35.258Z,51.92
2019-06-20T09:08:04.799Z,50.67
2019-06-20T09:10:41.248Z,51.34
2019-06-20T09:13:11.384Z,50.08
2019-06-20T09:15:40.167Z,50.55
2019-06-20T09:18:08.747Z,50.91
2019-06-20T09:20:37.573Z,50.64
2019-06-20T09:23:10.622Z,48.09
2019-06-20T09:25:38.790Z,49.59
2019-06-20T09:28:07.550Z,52.89
2019-06-20T09:30:37.212Z,49.96
2019-06-20T09:33:05.937Z,49.11
2019-06-20T09:35:34.534Z,48.46
2019-06-20T09:38:03.480Z,46.64
2019-06-20T09:40:32.111Z,46.70
2019-06-20T09:43:00.543Z,47.79
2019-06-20T09:45:29.268Z,46.86
2019-06-20T09:47:58.257Z,45.83
2019-06-20T09:50:27.760Z,46.35
2019-06-20T09:52:56.774Z,44.70
2019-06-20T09:55:25.250Z,44.64
2019-06-20T09:57:53.821Z,44.39
2019-06-20T10:00:24.934Z,44.92
2019-06-20T10:02:55.390Z,44.83
2019-06-20T10:05:24.413Z,44.38
2019-06-20T10:07:54.362Z,45.99
2019-06-20T10:10:25.975Z,45.96
2019-06-20T10:12:55.775Z,44.50
2019-06-20T10:15:28.592Z,44.23
2019-06-20T10:17:57.258Z,43.36
2019-06-20T10:20:27.000Z,43.30
2019-06-20T10:22:55.390Z,43.76
2019-06-20T10:25:23.856Z,43.21
2019-06-20T10:27:53.697Z,44.57
2019-06-20T10:30:24.420Z,45.75
2019-06-20T10:32:53.212Z,44.79
2019-06-20T10:35:21.920Z,45.98
2019-06-20T10:37:50.598Z,45.65
2019-06-20T10:40:20.227Z,45.20
2019-06-20T10:42:50.147Z,45.52
2019-06-20T10:45:21.089Z,42.87
2019-06-20T10:47:50.915Z,42.87
2019-06-20T10:50:20.727Z,42.27
2019-06-20T10:52:50.099Z,40.96
2019-06-20T10:55:19.289Z,40.28
2019-06-20T10:57:49.549Z,41.08
2019-06-20T11:03:58.745Z,43.11
2019-06-20T11:06:27.150Z,42.23
2019-06-20T11:08:55.569Z,41.77
2019-06-20T11:11:24.090Z,42.12
2019-06-20T11:13:52.530Z,43.33
2019-06-20T11:16:20.877Z,42.40
2019-06-20T11:18:49.295Z,43.45
2019-06-20T11:21:17.694Z,43.22
2019-06-20T11:23:47.358Z,44.07
2019-06-20T11:26:15.781Z,43.42
2019-06-20T11:28:44.783Z,43.76
2019-06-20T11:31:13.245Z,46.14
2019-06-20T11:33:42.087Z,43.04
2019-06-20T11:36:11.470Z,42.99
2019-06-20T11:38:40.708Z,43.28
2019-06-20T11:41:09.198Z,43.03
2019-06-20T11:43:38.384Z,43.37
2019-06-20T11:46:06.858Z,42.88
2019-06-20T11:48:36.754Z,43.33
2019-06-20T11:51:05.219Z,42.22
2019-06-20T11:53:35.299Z,43.07
2019-06-20T11:56:04.128Z,42.54
2019-06-20T11:58:32.595Z,42.28
2019-06-20T12:01:03.831Z,42.82
2019-06-20T12:03:31.117Z,43.05
2019-06-20T12:05:59.654Z,43.04
2019-06-20T12:08:28.152Z,43.65
2019-06-20T12:10:56.544Z,41.43
2019-06-20T12:13:24.941Z,41.19
2019-06-20T12:15:53.606Z,42.11
2019-06-20T12:18:22.007Z,43.13
2019-06-20T12:20:50.407Z,43.66
2019-06-20T12:23:18.832Z,44.68
2019-06-20T12:25:48.797Z,44.82
2019-06-20T12:28:17.341Z,44.02
2019-06-20T12:30:45.937Z,43.50
2019-06-20T12:33:14.646Z,44.82
2019-06-20T12:35:44.477Z,44.37
2019-06-20T12:38:15.123Z,44.84
2019-06-20T12:40:44.095Z,43.94
2019-06-20T12:43:12.494Z,45.58
2019-06-20T12:45:41.372Z,44.06
2019-06-20T12:48:10.987Z,43.00
2019-06-20T12:50:40.260Z,43.11
2019-06-20T12:53:09.521Z,43.30
2019-06-20T12:55:38.916Z,44.13
2019-06-20T12:58:08.096Z,43.87
2019-06-20T13:00:38.939Z,43.59
2019-06-20T13:03:07.086Z,44.40
2019-06-20T13:05:35.909Z,46.31
2019-06-20T13:08:06.435Z,45.82
2019-06-20T13:10:34.777Z,46.49
2019-06-20T13:13:03.156Z,47.76
2019-06-20T13:15:31.585Z,47.01
2019-06-20T13:18:00.039Z,47.95
2019-06-20T13:20:28.438Z,49.28
2019-06-20T13:22:56.848Z,49.55
2019-06-20T13:25:25.287Z,50.25
2019-06-20T13:27:53.624Z,51.68
2019-06-20T13:30:22.131Z,53.93
2019-06-20T13:32:50.520Z,56.02
2019-06-20T13:35:20.138Z,57.65
2019-06-20T13:37:49.869Z,59.63
2019-06-20T13:40:18.943Z,61.13
2019-06-20T13:42:48.077Z,65.16
2019-06-20T13:45:22.001Z,67.23
2019-06-20T13:47:50.540Z,68.23
2019-06-20T13:50:19.568Z,70.08
2019-06-20T13:52:49.564Z,70.92
2019-06-20T13:55:18.320Z,71.34
2019-06-20T13:57:47.335Z,71.22
2019-06-20T14:00:18.468Z,70.39
2019-06-20T14:02:48.503Z,71.00
2019-06-20T14:05:17.301Z,71.04
2019-06-20T14:07:48.490Z,70.22
2019-06-20T14:10:16.821Z,71.12
2019-06-20T14:12:46.713Z,70.47
2019-06-20T14:15:16.361Z,66.82
2019-06-20T14:17:45.043Z,67.49
2019-06-20T14:20:16.161Z,66.17
2019-06-20T14:22:45.120Z,66.16
2019-06-20T14:25:14.160Z,66.39
2019-06-20T14:27:43.866Z,65.51
2019-06-20T14:30:13.393Z,67.42
2019-06-20T14:32:43.143Z,67.04
2019-06-20T14:35:12.426Z,65.65
2019-06-20T14:37:43.375Z,62.18
2019-06-20T14:40:12.921Z,63.25
2019-06-20T14:42:42.782Z,64.30
2019-06-20T14:45:12.481Z,64.49
2019-06-20T14:47:41.178Z,63.58
2019-06-20T14:50:10.783Z,64.86
2019-06-20T14:52:39.464Z,64.17
2019-06-20T14:55:08.543Z,64.83
2019-06-20T14:57:36.976Z,65.66
2019-06-20T15:00:09.323Z,65.86
2019-06-20T15:02:43.753Z,68.32
2019-06-20T15:05:17.229Z,69.08
2019-06-20T15:07:47.201Z,67.93
2019-06-20T15:10:21.203Z,68.87
2019-06-20T15:12:50.238Z,68.51
2019-06-20T15:15:19.289Z,68.73
2019-06-20T15:17:50.354Z,68.89
2019-06-20T15:20:18.336Z,68.20
2019-06-20T15:22:48.597Z,67.68
2019-06-20T15:25:20.470Z,68.71
2019-06-20T15:27:51.121Z,67.61
2019-06-20T15:30:19.514Z,67.19
2019-06-20T15:32:59.270Z,67.09
2019-06-20T15:35:18.078Z,66.72
2019-06-20T15:37:47.874Z,67.55
2019-06-20T15:40:16.740Z,67.11
2019-06-20T15:42:45.116Z,65.97
2019-06-20T15:45:13.669Z,66.37
2019-06-20T15:47:42.100Z,66.27
2019-06-20T15:50:14.022Z,66.02
2019-06-20T15:52:42.542Z,64.65
2019-06-20T15:55:11.401Z,62.04
2019-06-20T15:57:40.401Z,61.03
2019-06-20T16:00:10.543Z,57.64
2019-06-20T16:02:38.983Z,58.83
2019-06-20T16:05:08.423Z,58.82
2019-06-20T16:07:36.992Z,58.61
2019-06-20T16:10:08.500Z,57.00
2019-06-20T16:12:36.882Z,57.49
2019-06-20T16:15:09.564Z,52.33
2019-06-20T16:17:38.214Z,54.27
2019-06-20T16:20:08.145Z,55.75
2019-06-20T16:22:37.260Z,54.88
2019-06-20T16:25:07.628Z,56.27
2019-06-20T16:27:36.021Z,54.82
2019-06-20T16:30:07.104Z,55.63
2019-06-20T16:32:35.504Z,54.95
2019-06-20T16:35:06.988Z,55.43
2019-06-20T16:37:35.371Z,55.29
2019-06-20T16:40:05.459Z,56.22
2019-06-20T16:42:33.850Z,55.22
2019-06-20T16:45:02.254Z,56.71
2019-06-20T16:47:30.760Z,56.74
2019-06-20T16:49:59.158Z,55.50
2019-06-20T16:52:27.642Z,55.00
2019-06-20T16:54:56.089Z,55.58
2019-06-20T16:57:24.485Z,55.31
2019-06-20T16:59:52.910Z,54.54
2019-06-20T17:02:21.435Z,53.52
2019-06-20T17:04:50.149Z,54.86
2019-06-20T17:07:18.581Z,54.39
2019-06-20T17:09:47.082Z,54.40
2019-06-20T17:12:15.490Z,55.06
2019-06-20T17:14:43.873Z,55.53
2019-06-20T17:17:12.392Z,55.10
2019-06-20T17:19:42.240Z,55.45
2019-06-20T17:22:10.685Z,54.94
2019-06-20T17:27:06.523Z,54.54
2019-06-20T17:29:34.936Z,54.44
2019-06-20T17:32:03.288Z,55.46
2019-06-20T17:34:31.767Z,54.74
2019-06-20T17:37:00.424Z,55.14
2019-06-20T17:39:29.176Z,55.43
2019-06-20T17:41:57.581Z,55.61
2019-06-20T17:44:27.530Z,55.33
2019-06-20T17:46:56.056Z,54.56
2019-06-20T17:49:24.444Z,54.94
2019-06-20T17:51:52.843Z,54.23
2019-06-20T17:54:21.263Z,55.38
2019-06-20T17:56:51.522Z,55.66
2019-06-20T17:59:22.662Z,56.51
2019-06-20T18:01:52.001Z,56.47
2019-06-20T18:04:20.401Z,56.88
2019-06-20T18:06:48.858Z,56.79
2019-06-20T18:09:17.272Z,57.00
2019-06-20T18:11:45.668Z,56.29
2019-06-20T18:14:16.749Z,56.72
2019-06-20T18:16:45.283Z,55.82
2019-06-20T18:19:13.655Z,56.37
2019-06-20T18:21:45.782Z,55.99
2019-06-20T18:24:13.717Z,56.27
2019-06-20T18:26:42.188Z,57.21
2019-06-20T18:29:10.588Z,58.55
2019-06-20T18:31:42.287Z,60.25
2019-06-20T18:34:09.113Z,60.93
2019-06-20T18:36:37.526Z,61.67
2019-06-20T18:39:08.408Z,61.55
2019-06-20T18:41:36.826Z,61.36
2019-06-20T18:44:05.322Z,59.56
2019-06-20T18:46:33.739Z,61.35
2019-06-20T18:49:02.125Z,60.55
2019-06-20T18:51:30.532Z,61.36
2019-06-20T18:53:58.967Z,61.91
2019-06-20T18:56:27.391Z,62.61
2019-06-20T18:58:55.743Z,62.97
2019-06-20T19:01:24.178Z,62.61
2019-06-20T19:03:52.693Z,62.70
2019-06-20T19:06:35.201Z,63.07
2019-06-20T19:08:51.827Z,63.15
2019-06-20T19:11:20.324Z,63.11
2019-06-20T19:13:48.763Z,62.57
2019-06-20T19:16:17.160Z,66.71
2019-06-20T19:18:45.621Z,68.08
2019-06-20T19:21:14.119Z,68.93
2019-06-20T19:23:42.800Z,68.89
2019-06-20T19:26:11.204Z,69.58
2019-06-20T19:28:39.619Z,70.80
2019-06-20T19:31:08.056Z,70.84
2019-06-20T19:33:36.467Z,71.46
2019-06-20T19:36:04.925Z,72.25
2019-06-20T19:38:34.144Z,72.35
2019-06-20T19:41:02.868Z,73.34
2019-06-20T19:43:32.594Z,73.70
2019-06-20T19:46:06.735Z,73.77
2019-06-20T19:48:39.059Z,73.97
2019-06-20T19:51:07.895Z,74.33
2019-06-20T19:53:41.528Z,74.46
2019-06-20T19:56:17.393Z,74.65
2019-06-20T19:58:51.687Z,75.14
2019-06-20T20:01:17.904Z,75.28
2019-06-20T20:03:46.300Z,74.81
2019-06-20T20:06:14.783Z,75.10
2019-06-20T20:08:43.188Z,75.17
2019-06-20T20:11:11.583Z,75.13
2019-06-20T20:13:40.030Z,75.05
2019-06-20T20:16:08.511Z,75.05
2019-06-20T20:18:36.881Z,75.16
2019-06-20T20:21:05.342Z,75.07
2019-06-20T20:23:33.867Z,75.30
2019-06-20T20:26:02.359Z,75.43
2019-06-20T20:28:31.131Z,75.91
2019-06-20T20:30:59.540Z,76.53
2019-06-20T20:33:28.026Z,76.52
2019-06-20T20:35:57.010Z,76.39
2019-06-20T20:38:28.588Z,76.51
2019-06-20T20:40:57.375Z,76.45
2019-06-20T20:43:25.827Z,76.51
2019-06-20T20:45:54.220Z,76.60
2019-06-20T20:48:22.616Z,76.85
2019-06-20T20:50:51.030Z,76.99
2019-06-20T20:53:19.445Z,77.08
2019-06-20T20:55:48.083Z,77.14
2019-06-20T20:58:16.506Z,77.44
2019-06-20T21:00:54.160Z,77.52
2019-06-20T21:03:22.863Z,77.47
2019-06-20T21:05:51.950Z,77.79
2019-06-20T21:08:20.454Z,77.89
2019-06-20T21:10:48.861Z,77.93
2019-06-20T21:13:17.273Z,77.97
2019-06-20T21:15:45.648Z,77.98
2019-06-20T21:18:14.039Z,77.98
2019-06-20T21:20:42.445Z,78.07
2019-06-20T21:23:10.875Z,78.20
2019-06-20T21:25:39.277Z,78.12
2019-06-20T21:28:07.737Z,78.12
2019-06-20T21:30:36.151Z,78.33
2019-06-20T21:33:04.608Z,78.45
2019-06-20T21:35:33.244Z,78.43
2019-06-20T21:38:01.632Z,78.37
2019-06-20T21:40:30.030Z,78.32
2019-06-20T21:42:58.692Z,78.24
2019-06-20T21:45:27.357Z,78.19
2019-06-20T21:47:55.778Z,77.95
2019-06-20T21:50:24.163Z,77.93
2019-06-20T21:52:53.102Z,77.89
2019-06-20T21:55:23.655Z,77.86
2019-06-20T21:57:52.030Z,77.91
2019-06-20T22:00:42.695Z,77.96
2019-06-20T22:03:11.629Z,78.11
2019-06-20T22:05:40.614Z,78.15
2019-06-20T22:08:09.135Z,78.31
2019-06-20T22:10:37.634Z,78.46
2019-06-20T22:13:06.374Z,78.47
2019-06-20T22:15:34.833Z,78.39
2019-06-20T22:18:03.575Z,78.48
2019-06-20T22:20:32.372Z,78.48
2019-06-20T22:23:00.736Z,78.44
2019-06-20T22:25:29.284Z,78.45
2019-06-20T22:27:57.675Z,78.38
2019-06-20T22:30:34.897Z,78.44
2019-06-20T22:33:03.332Z,78.43
2019-06-20T22:35:32.044Z,78.15
2019-06-20T22:38:00.465Z,78.13
2019-06-20T22:40:29.124Z,78.27
2019-06-20T22:42:57.575Z,78.49
2019-06-20T22:45:25.970Z,78.72
2019-06-20T22:47:54.367Z,78.85
2019-06-20T22:50:22.874Z,78.83
2019-06-20T22:52:51.539Z,78.85
2019-06-20T22:55:19.941Z,78.71
2019-06-20T22:57:48.635Z,78.61
2019-06-20T23:00:17.743Z,78.81
2019-06-20T23:02:46.161Z,79.11
2019-06-20T23:05:14.865Z,79.51
2019-06-20T23:07:43.286Z,79.51
2019-06-20T23:10:11.931Z,79.32
2019-06-20T23:12:40.399Z,79.07
2019-06-20T23:15:09.435Z,79.03
2019-06-20T23:17:38.121Z,79.07
2019-06-20T23:20:08.187Z,78.94
2019-06-20T23:25:02.080Z,79.08
2019-06-20T23:27:30.909Z,79.09
2019-06-20T23:29:59.314Z,79.13
2019-06-20T23:32:27.738Z,79.05
2019-06-20T23:34:56.362Z,79.21
2019-06-20T23:37:24.755Z,79.07
2019-06-20T23:39:53.177Z,79.34
2019-06-20T23:42:21.560Z,79.29
2019-06-20T23:44:49.970Z,79.30
2019-06-20T23:47:18.360Z,79.23
2019-06-20T23:49:47.027Z,78.90
2019-06-20T23:52:17.077Z,79.15
2019-06-20T23:54:45.477Z,79.09
2019-06-20T23:57:13.868Z,78.92
2019-06-20T23:59:42.289Z,79.13
